sensor_id;sensor_type;location;lat;lon;timestamp;pressure;altitude;pressure_sealevel;temperature;humidity
57234;BME280;43090;52.604;13.318;2023-07-29T00:00:04;100301.88;;;18.43;100.00
57234;BME280;43090;52.604;13.318;2023-07-29T00:02:31;100285.78;;;18.50;100.00
57234;BME280;43090;52.604;13.318;2023-07-29T00:04:58;100294.25;;;18.55;100.00
57234;BME280;43090;52.604;13.318;2023-07-29T00:07:25;100291.53;;;18.55;100.00
57234;BME280;43090;52.604;13.318;2023-07-29T00:09:51;100296.78;;;18.48;100.00
57234;BME280;43090;52.604;13.318;2023-07-29T00:12:18;100294.09;;;18.48;100.00
57234;BME280;43090;52.604;13.318;2023-07-29T00:14:44;100283.75;;;18.52;100.00
57234;BME280;43090;52.604;13.318;2023-07-29T00:17:11;100289.84;;;18.46;100.00
57234;BME280;43090;52.604;13.318;2023-07-29T00:19:37;100289.84;;;18.46;100.00
57234;BME280;43090;52.604;13.318;2023-07-29T00:22:04;100285.78;;;18.42;100.00
57234;BME280;43090;52.604;13.318;2023-07-29T00:24:30;100295.59;;;18.43;100.00
57234;BME280;43090;52.604;13.318;2023-07-29T00:26:57;100291.22;;;18.25;100.00
57234;BME280;43090;52.604;13.318;2023-07-29T00:29:23;100275.97;;;18.16;100.00
57234;BME280;43090;52.604;13.318;2023-07-29T00:31:50;100288.16;;;18.20;100.00
57234;BME280;43090;52.604;13.318;2023-07-29T00:34:16;100286.81;;;18.24;100.00
57234;BME280;43090;52.604;13.318;2023-07-29T00:36:46;100286.13;;;18.30;100.00
57234;BME280;43090;52.604;13.318;2023-07-29T00:39:12;100285.63;;;18.27;100.00
57234;BME280;43090;52.604;13.318;2023-07-29T00:41:39;100294.59;;;18.36;100.00
57234;BME280;43090;52.604;13.318;2023-07-29T00:44:06;100290.53;;;18.15;100.00
57234;BME280;43090;52.604;13.318;2023-07-29T00:46:34;100289.69;;;18.14;100.00
57234;BME280;43090;52.604;13.318;2023-07-29T00:49:01;100288.00;;;18.13;100.00
57234;BME280;43090;52.604;13.318;2023-07-29T00:51:28;100283.44;;;18.06;100.00
57234;BME280;43090;52.604;13.318;2023-07-29T00:53:54;100283.44;;;18.06;100.00
57234;BME280;43090;52.604;13.318;2023-07-29T00:56:21;100290.72;;;18.05;100.00
57234;BME280;43090;52.604;13.318;2023-07-29T00:58:47;100287.50;;;18.02;100.00
57234;BME280;43090;52.604;13.318;2023-07-29T01:01:14;100283.44;;;17.97;100.00
57234;BME280;43090;52.604;13.318;2023-07-29T01:03:41;100262.13;;;17.94;100.00
57234;BME280;43090;52.604;13.318;2023-07-29T01:08:46;100279.38;;;17.93;100.00
57234;BME280;43090;52.604;13.318;2023-07-29T01:13:50;100272.78;;;17.96;100.00
57234;BME280;43090;52.604;13.318;2023-07-29T01:16:27;100269.22;;;17.95;100.00
57234;BME280;43090;52.604;13.318;2023-07-29T01:18:59;100273.25;;;17.91;100.00
57234;BME280;43090;52.604;13.318;2023-07-29T01:21:31;100262.91;;;17.87;100.00
57234;BME280;43090;52.604;13.318;2023-07-29T01:23:58;100252.91;;;17.87;100.00
57234;BME280;43090;52.604;13.318;2023-07-29T01:26:25;100249.09;;;17.98;100.00
57234;BME280;43090;52.604;13.318;2023-07-29T01:28:52;100255.31;;;17.90;100.00
57234;BME280;43090;52.604;13.318;2023-07-29T01:31:34;100253.28;;;17.92;100.00
57234;BME280;43090;52.604;13.318;2023-07-29T01:34:24;100250.94;;;17.97;100.00
57234;BME280;43090;52.604;13.318;2023-07-29T01:51:27;100265.09;;;16.73;100.00
57234;BME280;43090;52.604;13.318;2023-07-29T01:53:54;100262.75;;;17.04;100.00
57234;BME280;43090;52.604;13.318;2023-07-29T01:56:21;100258.88;;;17.07;100.00
57234;BME280;43090;52.604;13.318;2023-07-29T01:58:48;100260.25;;;17.19;100.00
57234;BME280;43090;52.604;13.318;2023-07-29T02:01:15;100254.88;;;17.27;100.00
57234;BME280;43090;52.604;13.318;2023-07-29T02:03:41;100252.84;;;17.29;100.00
57234;BME280;43090;52.604;13.318;2023-07-29T02:06:08;100246.75;;;17.36;100.00
57234;BME280;43090;52.604;13.318;2023-07-29T02:08:35;100236.47;;;17.39;100.00
57234;BME280;43090;52.604;13.318;2023-07-29T02:11:01;100247.81;;;17.51;100.00
57234;BME280;43090;52.604;13.318;2023-07-29T02:13:28;100245.47;;;17.48;100.00
57234;BME280;43090;52.604;13.318;2023-07-29T02:15:54;100245.28;;;17.49;100.00
57234;BME280;43090;52.604;13.318;2023-07-29T02:18:21;100246.13;;;17.42;100.00
57234;BME280;43090;52.604;13.318;2023-07-29T02:20:47;100245.28;;;17.49;100.00
57234;BME280;43090;52.604;13.318;2023-07-29T02:23:16;100256.28;;;17.48;100.00
57234;BME280;43090;52.604;13.318;2023-07-29T02:25:44;100262.34;;;17.50;100.00
57234;BME280;43090;52.604;13.318;2023-07-29T02:28:11;100271.63;;;17.39;100.00
57234;BME280;43090;52.604;13.318;2023-07-29T02:30:41;100270.25;;;17.27;100.00
57234;BME280;43090;52.604;13.318;2023-07-29T02:33:10;100278.91;;;17.30;100.00
57234;BME280;43090;52.604;13.318;2023-07-29T02:35:37;100274.34;;;17.39;100.00
57234;BME280;43090;52.604;13.318;2023-07-29T02:38:03;100266.06;;;17.41;100.00
57234;BME280;43090;52.604;13.318;2023-07-29T02:40:30;100259.00;;;17.48;100.00
57234;BME280;43090;52.604;13.318;2023-07-29T02:42:57;100270.00;;;17.63;100.00
57234;BME280;43090;52.604;13.318;2023-07-29T02:45:23;100256.28;;;17.40;100.00
57234;BME280;43090;52.604;13.318;2023-07-29T02:47:50;100254.22;;;17.34;100.00
57234;BME280;43090;52.604;13.318;2023-07-29T02:50:16;100236.66;;;17.46;100.00
57234;BME280;43090;52.604;13.318;2023-07-29T02:52:43;100240.56;;;17.52;100.00
57234;BME280;43090;52.604;13.318;2023-07-29T02:55:09;100238.69;;;17.52;100.00
57234;BME280;43090;52.604;13.318;2023-07-29T02:57:36;100248.34;;;17.55;100.00
57234;BME280;43090;52.604;13.318;2023-07-29T03:00:02;100248.50;;;17.53;100.00
57234;BME280;43090;52.604;13.318;2023-07-29T03:02:29;100249.88;;;17.49;100.00
57234;BME280;43090;52.604;13.318;2023-07-29T03:04:55;100244.94;;;17.44;100.00
57234;BME280;43090;52.604;13.318;2023-07-29T03:07:22;100242.22;;;17.44;100.00
57234;BME280;43090;52.604;13.318;2023-07-29T03:09:48;100243.94;;;17.45;100.00
57234;BME280;43090;52.604;13.318;2023-07-29T03:12:15;100242.22;;;17.36;100.00
57234;BME280;43090;52.604;13.318;2023-07-29T03:14:41;100237.47;;;17.38;100.00
57234;BME280;43090;52.604;13.318;2023-07-29T03:17:08;100251.69;;;17.40;100.00
57234;BME280;43090;52.604;13.318;2023-07-29T03:19:34;100246.81;;;17.44;100.00
57234;BME280;43090;52.604;13.318;2023-07-29T03:22:01;100241.22;;;17.37;100.00
57234;BME280;43090;52.604;13.318;2023-07-29T03:24:27;100250.53;;;17.43;100.00
57234;BME280;43090;52.604;13.318;2023-07-29T03:26:55;100249.34;;;17.45;100.00
57234;BME280;43090;52.604;13.318;2023-07-29T03:29:21;100241.06;;;17.47;100.00
57234;BME280;43090;52.604;13.318;2023-07-29T03:31:48;100244.75;;;17.46;100.00
57234;BME280;43090;52.604;13.318;2023-07-29T03:34:14;100241.56;;;17.42;100.00
57234;BME280;43090;52.604;13.318;2023-07-29T03:36:40;100242.56;;;17.49;100.00
57234;BME280;43090;52.604;13.318;2023-07-29T03:39:07;100248.16;;;17.48;100.00
57234;BME280;43090;52.604;13.318;2023-07-29T03:41:33;100247.47;;;17.46;100.00
57234;BME280;43090;52.604;13.318;2023-07-29T03:44:00;100234.59;;;17.31;100.00
57234;BME280;43090;52.604;13.318;2023-07-29T03:46:26;100233.56;;;17.32;100.00
57234;BME280;43090;52.604;13.318;2023-07-29T03:48:53;100237.63;;;17.37;100.00
57234;BME280;43090;52.604;13.318;2023-07-29T03:51:19;100240.19;;;17.38;100.00
57234;BME280;43090;52.604;13.318;2023-07-29T03:53:47;100234.63;;;17.40;100.00
57234;BME280;43090;52.604;13.318;2023-07-29T03:56:13;100234.63;;;17.40;100.00
57234;BME280;43090;52.604;13.318;2023-07-29T03:58:40;100231.91;;;17.40;100.00
57234;BME280;43090;52.604;13.318;2023-07-29T04:01:06;100228.69;;;17.36;100.00
57234;BME280;43090;52.604;13.318;2023-07-29T04:03:33;100232.41;;;17.43;100.00
57234;BME280;43090;52.604;13.318;2023-07-29T04:06:00;100232.09;;;17.46;100.00
57234;BME280;43090;52.604;13.318;2023-07-29T04:08:27;100227.03;;;17.52;100.00
57234;BME280;43090;52.604;13.318;2023-07-29T04:10:53;100230.56;;;17.44;100.00
57234;BME280;43090;52.604;13.318;2023-07-29T04:13:20;100234.28;;;17.51;100.00
57234;BME280;43090;52.604;13.318;2023-07-29T04:15:46;100229.22;;;17.48;100.00
57234;BME280;43090;52.604;13.318;2023-07-29T04:18:13;100224.97;;;17.45;100.00
57234;BME280;43090;52.604;13.318;2023-07-29T04:20:39;100233.63;;;17.49;100.00
57234;BME280;43090;52.604;13.318;2023-07-29T04:23:06;100236.66;;;17.54;100.00
57234;BME280;43090;52.604;13.318;2023-07-29T04:25:32;100232.75;;;17.57;100.00
57234;BME280;43090;52.604;13.318;2023-07-29T04:27:59;100227.88;;;17.44;100.00
57234;BME280;43090;52.604;13.318;2023-07-29T04:30:25;100227.88;;;17.44;100.00
57234;BME280;43090;52.604;13.318;2023-07-29T04:32:52;100227.81;;;17.27;100.00
57234;BME280;43090;52.604;13.318;2023-07-29T04:35:18;100228.53;;;17.46;100.00
57234;BME280;43090;52.604;13.318;2023-07-29T04:37:45;100242.09;;;17.62;100.00
57234;BME280;43090;52.604;13.318;2023-07-29T04:40:14;100240.09;;;17.73;100.00
57234;BME280;43090;52.604;13.318;2023-07-29T04:42:40;100249.88;;;17.74;100.00
57234;BME280;43090;52.604;13.318;2023-07-29T04:45:07;100249.22;;;17.80;100.00
57234;BME280;43090;52.604;13.318;2023-07-29T04:47:33;100255.50;;;17.89;100.00
57234;BME280;43090;52.604;13.318;2023-07-29T04:50:00;100254.44;;;17.90;100.00
57234;BME280;43090;52.604;13.318;2023-07-29T04:52:26;100245.69;;;17.96;100.00
57234;BME280;43090;52.604;13.318;2023-07-29T04:54:53;100243.97;;;18.03;100.00
57234;BME280;43090;52.604;13.318;2023-07-29T04:57:20;100243.84;;;18.05;100.00
57234;BME280;43090;52.604;13.318;2023-07-29T04:59:46;100248.41;;;18.12;100.00
57234;BME280;43090;52.604;13.318;2023-07-29T05:02:13;100244.31;;;18.08;100.00
57234;BME280;43090;52.604;13.318;2023-07-29T05:04:39;100236.03;;;18.18;100.00
57234;BME280;43090;52.604;13.318;2023-07-29T05:07:06;100229.44;;;18.21;100.00
57234;BME280;43090;52.604;13.318;2023-07-29T05:09:32;100237.00;;;18.34;100.00
57234;BME280;43090;52.604;13.318;2023-07-29T05:11:59;100234.63;;;18.39;100.00
57234;BME280;43090;52.604;13.318;2023-07-29T05:14:25;100232.06;;;18.45;100.00
57234;BME280;43090;52.604;13.318;2023-07-29T05:16:52;100228.50;;;18.53;100.00
57234;BME280;43090;52.604;13.318;2023-07-29T05:19:18;100224.66;;;18.31;100.00
57234;BME280;43090;52.604;13.318;2023-07-29T05:21:45;100222.09;;;18.46;100.00
57234;BME280;43090;52.604;13.318;2023-07-29T05:24:11;100226.66;;;18.54;100.00
57234;BME280;43090;52.604;13.318;2023-07-29T05:26:38;100218.16;;;18.57;100.00
57234;BME280;43090;52.604;13.318;2023-07-29T05:29:05;100209.16;;;18.64;100.00
57234;BME280;43090;52.604;13.318;2023-07-29T05:31:31;100205.75;;;18.62;100.00
57234;BME280;43090;52.604;13.318;2023-07-29T05:33:58;100218.94;;;18.74;100.00
57234;BME280;43090;52.604;13.318;2023-07-29T05:36:25;100220.28;;;18.78;100.00
57234;BME280;43090;52.604;13.318;2023-07-29T05:38:52;100225.34;;;18.81;100.00
57234;BME280;43090;52.604;13.318;2023-07-29T05:41:18;100234.47;;;18.96;100.00
57234;BME280;43090;52.604;13.318;2023-07-29T05:43:45;100221.97;;;18.79;100.00
57234;BME280;43090;52.604;13.318;2023-07-29T05:46:11;100222.28;;;18.92;100.00
57234;BME280;43090;52.604;13.318;2023-07-29T05:48:38;100225.84;;;18.93;100.00
57234;BME280;43090;52.604;13.318;2023-07-29T05:51:04;100218.34;;;19.03;100.00
57234;BME280;43090;52.604;13.318;2023-07-29T05:53:33;100221.88;;;19.04;100.00
57234;BME280;43090;52.604;13.318;2023-07-29T05:56:00;100218.97;;;19.13;100.00
57234;BME280;43090;52.604;13.318;2023-07-29T05:58:27;100207.25;;;19.13;100.00
57234;BME280;43090;52.604;13.318;2023-07-29T06:00:53;100199.78;;;19.15;100.00
57234;BME280;43090;52.604;13.318;2023-07-29T06:03:20;100201.81;;;19.44;100.00
57234;BME280;43090;52.604;13.318;2023-07-29T06:05:48;100208.88;;;19.54;100.00
57234;BME280;43090;52.604;13.318;2023-07-29T06:08:19;100191.50;;;19.40;100.00
57234;BME280;43090;52.604;13.318;2023-07-29T06:10:45;100183.28;;;19.48;100.00
57234;BME280;43090;52.604;13.318;2023-07-29T06:13:12;100185.94;;;19.56;100.00
57234;BME280;43090;52.604;13.318;2023-07-29T06:15:38;100186.53;;;19.20;100.00
57234;BME280;43090;52.604;13.318;2023-07-29T06:18:05;100179.97;;;19.38;100.00
57234;BME280;43090;52.604;13.318;2023-07-29T06:20:31;100170.50;;;19.34;100.00
57234;BME280;43090;52.604;13.318;2023-07-29T06:22:58;100172.91;;;19.05;100.00
57234;BME280;43090;52.604;13.318;2023-07-29T06:25:25;100173.84;;;19.12;100.00
57234;BME280;43090;52.604;13.318;2023-07-29T06:27:51;100176.06;;;19.17;100.00
57234;BME280;43090;52.604;13.318;2023-07-29T06:30:18;100194.84;;;19.42;100.00
57234;BME280;43090;52.604;13.318;2023-07-29T06:32:44;100195.47;;;19.29;100.00
57234;BME280;43090;52.604;13.318;2023-07-29T06:35:11;100187.19;;;19.22;100.00
57234;BME280;43090;52.604;13.318;2023-07-29T06:37:38;100184.88;;;19.42;100.00
57234;BME280;43090;52.604;13.318;2023-07-29T06:40:04;100191.50;;;19.86;100.00
57234;BME280;43090;52.604;13.318;2023-07-29T06:42:31;100177.72;;;19.88;100.00
57234;BME280;43090;52.604;13.318;2023-07-29T06:44:58;100200.69;;;20.00;100.00
57234;BME280;43090;52.604;13.318;2023-07-29T06:47:24;100202.88;;;20.05;100.00
57234;BME280;43090;52.604;13.318;2023-07-29T06:49:51;100196.97;;;20.01;100.00
57234;BME280;43090;52.604;13.318;2023-07-29T06:52:18;100208.84;;;20.00;100.00
57234;BME280;43090;52.604;13.318;2023-07-29T06:54:44;100201.06;;;19.82;100.00
57234;BME280;43090;52.604;13.318;2023-07-29T06:57:11;100197.34;;;19.98;100.00
57234;BME280;43090;52.604;13.318;2023-07-29T06:59:37;100211.13;;;20.11;98.31
57234;BME280;43090;52.604;13.318;2023-07-29T07:02:04;100208.56;;;19.95;97.97
57234;BME280;43090;52.604;13.318;2023-07-29T07:04:30;100209.34;;;20.04;100.00
57234;BME280;43090;52.604;13.318;2023-07-29T07:06:57;100208.81;;;20.23;100.00
57234;BME280;43090;52.604;13.318;2023-07-29T07:09:24;100213.13;;;20.47;100.00
57234;BME280;43090;52.604;13.318;2023-07-29T07:11:50;100219.22;;;20.35;100.00
57234;BME280;43090;52.604;13.318;2023-07-29T07:14:17;100228.91;;;20.67;100.00
57234;BME280;43090;52.604;13.318;2023-07-29T07:16:43;100212.22;;;20.70;100.00
57234;BME280;43090;52.604;13.318;2023-07-29T07:19:10;100214.47;;;20.67;100.00
57234;BME280;43090;52.604;13.318;2023-07-29T07:21:37;100208.81;;;20.53;97.67
57234;BME280;43090;52.604;13.318;2023-07-29T07:24:03;100213.72;;;20.73;94.84
57234;BME280;43090;52.604;13.318;2023-07-29T07:26:30;100213.72;;;20.88;96.37
57234;BME280;43090;52.604;13.318;2023-07-29T07:28:57;100203.94;;;20.63;100.00
57234;BME280;43090;52.604;13.318;2023-07-29T07:31:23;100209.94;;;21.04;100.00
57234;BME280;43090;52.604;13.318;2023-07-29T07:33:50;100208.78;;;21.13;99.84
57234;BME280;43090;52.604;13.318;2023-07-29T07:36:16;100183.47;;;21.34;98.07
57234;BME280;43090;52.604;13.318;2023-07-29T07:38:43;100172.66;;;21.41;96.50
57234;BME280;43090;52.604;13.318;2023-07-29T07:41:09;100204.47;;;22.05;95.33
57234;BME280;43090;52.604;13.318;2023-07-29T07:43:36;100190.44;;;21.58;95.27
57234;BME280;43090;52.604;13.318;2023-07-29T07:46:04;100203.03;;;21.59;95.89
57234;BME280;43090;52.604;13.318;2023-07-29T07:48:37;100185.28;;;22.20;91.16
57234;BME280;43090;52.604;13.318;2023-07-29T07:51:11;100175.44;;;22.54;81.26
57234;BME280;43090;52.604;13.318;2023-07-29T07:53:38;100188.31;;;22.67;82.37
57234;BME280;43090;52.604;13.318;2023-07-29T07:56:06;100180.19;;;22.80;79.84
57234;BME280;43090;52.604;13.318;2023-07-29T07:58:34;100156.19;;;22.62;86.21
57234;BME280;43090;52.604;13.318;2023-07-29T08:01:04;100136.63;;;23.07;82.83
57234;BME280;43090;52.604;13.318;2023-07-29T08:03:34;100175.13;;;23.26;79.28
57234;BME280;43090;52.604;13.318;2023-07-29T08:06:02;100160.53;;;23.05;79.70
57234;BME280;43090;52.604;13.318;2023-07-29T08:08:28;100171.31;;;23.20;77.99
57234;BME280;43090;52.604;13.318;2023-07-29T08:10:56;100179.22;;;23.02;80.91
57234;BME280;43090;52.604;13.318;2023-07-29T08:13:23;100179.44;;;23.07;73.93
57234;BME280;43090;52.604;13.318;2023-07-29T08:15:52;100155.94;;;23.12;79.69
57234;BME280;43090;52.604;13.318;2023-07-29T08:18:19;100167.97;;;23.18;81.72
57234;BME280;43090;52.604;13.318;2023-07-29T08:20:57;100171.53;;;23.19;78.77
57234;BME280;43090;52.604;13.318;2023-07-29T08:23:25;100173.50;;;22.90;82.32
57234;BME280;43090;52.604;13.318;2023-07-29T08:25:54;100182.72;;;22.82;81.61
57234;BME280;43090;52.604;13.318;2023-07-29T08:28:23;100160.03;;;22.75;80.41
57234;BME280;43090;52.604;13.318;2023-07-29T08:30:50;100172.47;;;22.91;77.41
57234;BME280;43090;52.604;13.318;2023-07-29T08:33:17;100169.59;;;22.57;80.96
57234;BME280;43090;52.604;13.318;2023-07-29T08:35:43;100179.41;;;22.52;82.53
57234;BME280;43090;52.604;13.318;2023-07-29T08:38:10;100168.44;;;22.38;82.43
57234;BME280;43090;52.604;13.318;2023-07-29T08:40:38;100164.81;;;22.31;84.77
57234;BME280;43090;52.604;13.318;2023-07-29T08:43:08;100158.81;;;22.14;82.72
57234;BME280;43090;52.604;13.318;2023-07-29T08:45:35;100163.72;;;22.25;84.83
57234;BME280;43090;52.604;13.318;2023-07-29T08:48:08;100162.28;;;22.65;84.48
57234;BME280;43090;52.604;13.318;2023-07-29T08:50:36;100156.28;;;22.89;84.94
57234;BME280;43090;52.604;13.318;2023-07-29T08:53:04;100161.44;;;22.64;77.71
57234;BME280;43090;52.604;13.318;2023-07-29T08:55:32;100162.59;;;22.90;80.62
57234;BME280;43090;52.604;13.318;2023-07-29T08:58:00;100161.31;;;22.86;79.71
57234;BME280;43090;52.604;13.318;2023-07-29T09:00:27;100166.13;;;22.35;77.67
57234;BME280;43090;52.604;13.318;2023-07-29T09:02:54;100159.94;;;22.55;82.33
57234;BME280;43090;52.604;13.318;2023-07-29T09:05:22;100166.41;;;22.47;85.92
57234;BME280;43090;52.604;13.318;2023-07-29T09:07:49;100166.88;;;22.57;83.63
57234;BME280;43090;52.604;13.318;2023-07-29T09:10:21;100156.06;;;22.42;88.32
57234;BME280;43090;52.604;13.318;2023-07-29T09:12:49;100164.47;;;22.41;82.51
57234;BME280;43090;52.604;13.318;2023-07-29T09:15:29;100162.22;;;22.51;81.69
57234;BME280;43090;52.604;13.318;2023-07-29T09:17:57;100157.41;;;22.53;85.71
57234;BME280;43090;52.604;13.318;2023-07-29T09:20:27;100148.00;;;22.27;84.25
57234;BME280;43090;52.604;13.318;2023-07-29T09:22:55;100145.22;;;22.49;84.39
57234;BME280;43090;52.604;13.318;2023-07-29T09:25:27;100141.66;;;22.55;83.78
57234;BME280;43090;52.604;13.318;2023-07-29T09:27:59;100131.91;;;22.74;83.26
57234;BME280;43090;52.604;13.318;2023-07-29T09:30:27;100141.75;;;22.75;80.85
57234;BME280;43090;52.604;13.318;2023-07-29T09:32:55;100141.59;;;22.42;83.63
57234;BME280;43090;52.604;13.318;2023-07-29T09:35:22;100129.56;;;22.71;85.31
57234;BME280;43090;52.604;13.318;2023-07-29T09:37:50;100106.88;;;22.64;85.10
57234;BME280;43090;52.604;13.318;2023-07-29T09:40:18;100125.03;;;22.92;86.72
57234;BME280;43090;52.604;13.318;2023-07-29T09:42:53;100117.09;;;23.10;85.20
57234;BME280;43090;52.604;13.318;2023-07-29T09:47:46;100123.44;;;23.24;82.23
57234;BME280;43090;52.604;13.318;2023-07-29T09:50:13;100111.34;;;22.85;81.06
57234;BME280;43090;52.604;13.318;2023-07-29T09:52:41;100110.06;;;22.68;80.79
57234;BME280;43090;52.604;13.318;2023-07-29T09:55:10;100111.16;;;22.93;81.46
57234;BME280;43090;52.604;13.318;2023-07-29T09:57:37;100109.06;;;22.89;81.87
57234;BME280;43090;52.604;13.318;2023-07-29T10:00:05;100110.06;;;22.74;84.75
57234;BME280;43090;52.604;13.318;2023-07-29T10:02:43;100105.00;;;22.71;86.14
57234;BME280;43090;52.604;13.318;2023-07-29T10:05:10;100098.94;;;22.76;91.09
57234;BME280;43090;52.604;13.318;2023-07-29T10:07:37;100097.75;;;23.05;86.48
57234;BME280;43090;52.604;13.318;2023-07-29T10:10:06;100087.28;;;23.09;85.77
57234;BME280;43090;52.604;13.318;2023-07-29T10:12:34;100087.47;;;23.01;80.28
57234;BME280;43090;52.604;13.318;2023-07-29T10:15:05;100088.88;;;22.90;80.04
57234;BME280;43090;52.604;13.318;2023-07-29T10:17:34;100081.81;;;23.02;78.44
57234;BME280;43090;52.604;13.318;2023-07-29T10:20:06;100081.72;;;22.82;82.10
57234;BME280;43090;52.604;13.318;2023-07-29T10:22:39;100073.13;;;22.78;86.33
57234;BME280;43090;52.604;13.318;2023-07-29T10:25:16;100076.50;;;22.94;81.49
57234;BME280;43090;52.604;13.318;2023-07-29T10:27:57;100077.50;;;22.66;87.74
57234;BME280;43090;52.604;13.318;2023-07-29T10:30:27;100075.00;;;22.71;81.10
57234;BME280;43090;52.604;13.318;2023-07-29T10:32:58;100083.63;;;22.75;82.66
57234;BME280;43090;52.604;13.318;2023-07-29T10:35:25;100066.56;;;22.59;83.61
57234;BME280;43090;52.604;13.318;2023-07-29T10:37:54;100075.13;;;22.14;92.42
57234;BME280;43090;52.604;13.318;2023-07-29T10:40:21;100079.44;;;21.95;99.39
57234;BME280;43090;52.604;13.318;2023-07-29T10:43:10;100061.75;;;22.20;97.10
57234;BME280;43090;52.604;13.318;2023-07-29T10:45:41;100068.53;;;21.95;100.00
57234;BME280;43090;52.604;13.318;2023-07-29T10:48:13;100060.84;;;22.06;100.00
57234;BME280;43090;52.604;13.318;2023-07-29T10:50:39;100050.28;;;21.96;100.00
57234;BME280;43090;52.604;13.318;2023-07-29T10:53:06;100053.06;;;21.68;100.00
57234;BME280;43090;52.604;13.318;2023-07-29T10:55:35;100056.44;;;21.70;100.00
57234;BME280;43090;52.604;13.318;2023-07-29T10:58:08;100064.88;;;21.53;100.00
57234;BME280;43090;52.604;13.318;2023-07-29T11:00:36;100045.06;;;20.73;100.00
57234;BME280;43090;52.604;13.318;2023-07-29T11:03:06;100061.34;;;20.51;100.00
57234;BME280;43090;52.604;13.318;2023-07-29T11:08:20;100081.78;;;20.47;100.00
57234;BME280;43090;52.604;13.318;2023-07-29T11:11:07;100092.59;;;20.40;100.00
57234;BME280;43090;52.604;13.318;2023-07-29T11:13:35;100083.19;;;20.28;100.00
57234;BME280;43090;52.604;13.318;2023-07-29T11:16:03;100098.97;;;20.33;100.00
57234;BME280;43090;52.604;13.318;2023-07-29T11:18:31;100111.22;;;20.13;100.00
57234;BME280;43090;52.604;13.318;2023-07-29T11:20:59;100121.28;;;19.75;100.00
57234;BME280;43090;52.604;13.318;2023-07-29T11:23:36;100105.56;;;19.70;100.00
57234;BME280;43090;52.604;13.318;2023-07-29T11:26:04;100103.47;;;19.72;100.00
57234;BME280;43090;52.604;13.318;2023-07-29T11:28:31;100099.63;;;19.90;100.00
57234;BME280;43090;52.604;13.318;2023-07-29T11:31:03;100087.59;;;19.84;100.00
57234;BME280;43090;52.604;13.318;2023-07-29T11:33:30;100074.91;;;19.76;100.00
57234;BME280;43090;52.604;13.318;2023-07-29T11:35:56;100091.19;;;20.00;100.00
57234;BME280;43090;52.604;13.318;2023-07-29T11:38:23;100083.22;;;20.13;100.00
57234;BME280;43090;52.604;13.318;2023-07-29T11:40:53;100087.88;;;20.04;100.00
57234;BME280;43090;52.604;13.318;2023-07-29T11:43:20;100076.94;;;20.12;100.00
57234;BME280;43090;52.604;13.318;2023-07-29T11:45:46;100082.91;;;20.23;100.00
57234;BME280;43090;52.604;13.318;2023-07-29T11:48:18;100080.97;;;20.31;100.00
57234;BME280;43090;52.604;13.318;2023-07-29T11:50:45;100063.22;;;20.36;100.00
57234;BME280;43090;52.604;13.318;2023-07-29T11:53:11;100063.22;;;20.36;100.00
57234;BME280;43090;52.604;13.318;2023-07-29T11:55:42;100057.53;;;20.30;100.00
57234;BME280;43090;52.604;13.318;2023-07-29T11:58:09;100054.72;;;20.24;100.00
57234;BME280;43090;52.604;13.318;2023-07-29T12:00:37;100046.03;;;20.50;100.00
57234;BME280;43090;52.604;13.318;2023-07-29T12:03:04;100047.88;;;20.64;100.00
57234;BME280;43090;52.604;13.318;2023-07-29T12:05:31;100062.13;;;20.82;100.00
57234;BME280;43090;52.604;13.318;2023-07-29T12:07:57;100070.63;;;20.93;100.00
57234;BME280;43090;52.604;13.318;2023-07-29T12:10:25;100070.28;;;20.82;100.00
57234;BME280;43090;52.604;13.318;2023-07-29T12:12:52;100068.88;;;20.86;100.00
57234;BME280;43090;52.604;13.318;2023-07-29T12:15:26;100081.31;;;20.95;100.00
57234;BME280;43090;52.604;13.318;2023-07-29T12:17:56;100078.59;;;20.95;100.00
57234;BME280;43090;52.604;13.318;2023-07-29T12:20:27;100070.81;;;20.92;100.00
57234;BME280;43090;52.604;13.318;2023-07-29T12:22:56;100078.84;;;21.00;100.00
57234;BME280;43090;52.604;13.318;2023-07-29T12:25:23;100076.31;;;20.99;100.00
57234;BME280;43090;52.604;13.318;2023-07-29T12:27:50;100086.00;;;20.86;100.00
57234;BME280;43090;52.604;13.318;2023-07-29T12:30:19;100086.69;;;21.10;100.00
57234;BME280;43090;52.604;13.318;2023-07-29T12:32:46;100082.47;;;21.07;100.00
57234;BME280;43090;52.604;13.318;2023-07-29T12:35:13;100079.38;;;21.10;100.00
57234;BME280;43090;52.604;13.318;2023-07-29T12:37:43;100082.31;;;21.09;100.00
57234;BME280;43090;52.604;13.318;2023-07-29T12:40:22;100060.44;;;20.80;100.00
57234;BME280;43090;52.604;13.318;2023-07-29T12:42:50;100075.75;;;21.25;100.00
57234;BME280;43090;52.604;13.318;2023-07-29T12:45:19;100072.69;;;21.35;100.00
57234;BME280;43090;52.604;13.318;2023-07-29T12:47:49;100068.94;;;21.36;100.00
57234;BME280;43090;52.604;13.318;2023-07-29T12:50:16;100059.91;;;21.35;100.00
57234;BME280;43090;52.604;13.318;2023-07-29T12:52:42;100060.25;;;21.75;100.00
57234;BME280;43090;52.604;13.318;2023-07-29T12:55:09;100045.38;;;21.78;100.00
57234;BME280;43090;52.604;13.318;2023-07-29T12:57:42;100054.91;;;21.95;100.00
57234;BME280;43090;52.604;13.318;2023-07-29T13:00:10;100033.97;;;22.03;100.00